GLOO2: Glover Creek, Glover, OK

                                SHEF ID:       GLOO2     Glover River near Glover, OK
STATION TYPE: Stream Gauge
Regulating: Stage = 16.00, Flow = 25615

PRECIP STAGE RIV-FLOW VOLTAGE BAT-LOAD
in ft cfs volt volt
Ccp-Rev Ccp-Rev Ccp-Rev Ccp-Rev Ccp-Rev
(America/Chicago)
04/30 00:00 ---- 4.58 612 13.04 ----
04/30 01:00 ---- 4.57 606 13.01 ----
04/30 02:00 ---- 4.52 576 12.98 ----
04/30 03:00 ---- 4.52 576 12.95 ----
04/30 04:00 ---- 4.47 546 12.95 ----
04/30 05:00 ---- 4.46 541 12.93 ----
04/30 06:00 ---- 4.44 529 12.90 ----
04/30 07:00 ---- 4.43 524 12.91 ----
04/30 08:00 ---- 4.42 518 12.99 ----
04/30 09:00 ---- 4.38 496 13.90 ----
04/30 10:00 ---- 4.36 486 14.64 ----
04/30 11:00 ---- 4.32 465 14.61 ----
04/30 12:00 ---- 4.30 454 13.85 ----
04/30 13:00 ---- 4.30 454 13.82 ----
04/30 14:00 ---- 4.28 444 13.81 ----
04/30 15:00 ---- 4.26 434 13.78 ----
04/30 16:00 ---- 4.27 439 13.78 ----
04/30 17:00 ---- 4.25 429 13.79 ----
04/30 18:00 ---- 4.22 415 13.79 ----
04/30 19:00 ---- 4.18 396 13.82 ----
04/30 20:00 ---- 4.19 401 13.22 ----
04/30 21:00 ---- 4.18 396 13.11 ----
04/30 22:00 ---- 4.18 396 13.07 ----
04/30 23:00 ---- 4.14 378 13.06 ----
Data processed at Fri 01May2026 04:39 GMT

NOTICE: If you are parsing this page

Please convert to using our Data API. Starting early 2026 we will be migrating to: https://water.usace.army.mil with modern pages rendered in JavaScript. When this migration completes you will no longer be able to scrape this page! CWMSDataAPI (CDA)

Timeseries IDs (TSIDs)

TSIDs used from left to right in the data table
GLOV.Precip-Inc.Total.1Hour.1Hour.Ccp-Rev
GLOV.Stage.Inst.1Hour.0.Ccp-Rev
GLOV.Flow.Inst.1Hour.0.Ccp-Rev
GLOV.Volt-Battery.Inst.1Hour.0.Ccp-Rev
GLOV.Volt-Battery Load.Inst.1Hour.0.Ccp-Rev

                            

All information presented herein is the property of the government of the United States of America and may be revised or deleted at any time without prior notice. Dissemination of this information without the expressed written consent of the Public Affairs Office, Tulsa District U.S. Army Corps of Engineers is strictly prohibited. These data are gathered electronically and, as presented, have NOT undergone any form of quality control. These data are NOT guaranteed to be valid or correct.